»·PEaware :: N188DD KAJO-KVCV

N188DD :: KAJO-KVCV

FLIGHT INFORMATION

Flight Status: Arrived
Operator: Privately registered:
United States
More flights under this callsign
Pilot: Craig S. (31220)
Aircraft: SOCATA TBM-900
(TBM9)
More flights by this aircraft type
Origin: KAJO Corona Mun
United States
Destination: KVCV Socal Logistics
United States
More flights between these airports :: More routes between these airports
Route: +PDZ V442 APLES
File this flight plan on PilotEdge
Remarks:
Altitude:
(Current/Filed)
11,000ft
Speed:
(Current/Filed)
200kts
Departed: 18-Oct-20 04:54 PM
Arrived: 18-Oct-20 05:47 PM
Distance/Time
Traveled:
43nm/0:52
Distance/Time
To Go:
Arrived

Flight Plot

Page will automatically refresh every two minutes.


Map Options




Map Legend


Flown Route
Filed Route
Departure Airport
Arrival Airport
Navaid (VOR, NDB)
Fix

Horizontal Profiles

Position Reports

Time Latitude Longitude Heading Altitude Ground
Speed
18-Oct-20 16:20 33.897023 -117.606773 183 536ft 0kts
18-Oct-20 16:21 33.897023 -117.606773 183 536ft 0kts
18-Oct-20 16:22 33.897023 -117.606773 183 536ft 0kts
18-Oct-20 16:23 33.896954 -117.606779 183 536ft 0kts
18-Oct-20 16:24 33.896954 -117.606779 183 536ft 0kts
18-Oct-20 16:25 33.896954 -117.606779 183 536ft 0kts
18-Oct-20 16:26 33.896954 -117.606779 183 536ft 0kts
18-Oct-20 16:27 33.896954 -117.606779 183 536ft 0kts
18-Oct-20 16:28 33.896954 -117.606779 183 536ft 0kts
18-Oct-20 16:29 33.896954 -117.606779 183 536ft 0kts
18-Oct-20 16:30 33.896954 -117.606779 183 536ft 0kts
18-Oct-20 16:31 33.896954 -117.606779 183 536ft 0kts
18-Oct-20 16:32 33.896954 -117.606779 183 536ft 0kts
18-Oct-20 16:33 33.896954 -117.606779 183 536ft 0kts
18-Oct-20 16:34 33.896954 -117.606779 183 536ft 0kts
18-Oct-20 16:35 33.897063 -117.607099 334 536ft 1kts
18-Oct-20 16:36 33.897235 -117.604481 88 536ft 10kts
18-Oct-20 16:37 33.897284 -117.601232 89 536ft 9kts
18-Oct-20 16:38 33.897239 -117.598086 113 536ft 9kts
18-Oct-20 16:39 33.897174 -117.597327 16 536ft 0kts
18-Oct-20 16:40 33.897174 -117.597327 16 536ft 0kts
18-Oct-20 16:41 33.897174 -117.597327 16 536ft 0kts
18-Oct-20 16:42 33.897174 -117.597327 16 536ft 0kts
18-Oct-20 16:43 33.897174 -117.597327 16 536ft 0kts
18-Oct-20 16:44 33.897174 -117.597327 16 536ft 0kts
18-Oct-20 16:45 33.897174 -117.597327 16 536ft 0kts
18-Oct-20 16:46 33.897174 -117.597327 16 536ft 0kts
18-Oct-20 16:47 33.897174 -117.597327 16 536ft 0kts
18-Oct-20 16:48 33.897174 -117.597327 16 536ft 0kts
18-Oct-20 16:49 33.897174 -117.597327 16 536ft 0kts
18-Oct-20 16:50 33.897174 -117.597327 16 536ft 0kts
18-Oct-20 16:51 33.897174 -117.597327 16 536ft 0kts
18-Oct-20 16:52 33.897730 -117.598135 273 536ft 27kts
18-Oct-20 16:53 33.913371 -117.625712 4 1593ft 178kts
18-Oct-20 16:54 33.928539 -117.574773 84 4014ft 189kts
18-Oct-20 16:55 33.923491 -117.509102 45 5078ft 184kts
18-Oct-20 16:56 33.953915 -117.471691 41 5850ft 151kts
18-Oct-20 16:57 33.976143 -117.490196 230 6025ft 171kts
18-Oct-20 16:58 33.928558 -117.508174 229 5989ft 180kts
18-Oct-20 16:59 33.907313 -117.555887 304 6536ft 165kts
18-Oct-20 17:00 33.946765 -117.540341 34 7556ft 176kts
18-Oct-20 17:01 33.974004 -117.495822 117 8401ft 186kts
18-Oct-20 17:02 33.935429 -117.507714 231 9018ft 180kts
18-Oct-20 17:04 33.913937 -117.560846 304 8998ft 196kts
18-Oct-20 17:05 33.957035 -117.535057 53 9009ft 219kts
18-Oct-20 17:06 33.997997 -117.482720 23 9013ft 215kts
18-Oct-20 17:07 34.051328 -117.449402 20 9011ft 216kts
18-Oct-20 17:08 34.105542 -117.417617 23 9017ft 217kts
18-Oct-20 17:09 34.159773 -117.384961 23 9020ft 218kts
18-Oct-20 17:10 34.213858 -117.352340 23 9018ft 216kts
18-Oct-20 17:11 34.267398 -117.320002 24 8970ft 217kts
18-Oct-20 17:12 34.321304 -117.287396 24 8947ft 215kts
18-Oct-20 17:13 34.374630 -117.255099 24 8956ft 214kts
18-Oct-20 17:14 34.428106 -117.222662 24 8959ft 214kts
18-Oct-20 17:15 34.481499 -117.190226 23 8972ft 214kts
18-Oct-20 17:16 34.534899 -117.157744 23 8987ft 215kts
18-Oct-20 17:17 34.591509 -117.143090 357 8301ft 206kts
18-Oct-20 17:18 34.647535 -117.151672 341 7298ft 202kts
18-Oct-20 17:19 34.694842 -117.175367 326 6561ft 148kts
18-Oct-20 17:19 34.722711 -117.198651 317 6599ft 145kts
18-Oct-20 17:21 34.755574 -117.239874 304 6589ft 145kts
18-Oct-20 17:21 34.773716 -117.274251 295 6587ft 144kts
18-Oct-20 17:23 34.791424 -117.330451 282 5841ft 156kts
18-Oct-20 17:23 34.794408 -117.372397 238 5179ft 141kts
18-Oct-20 17:25 34.749614 -117.376933 184 4383ft 152kts
18-Oct-20 17:25 34.718751 -117.377875 189 4285ft 116kts
18-Oct-20 17:27 34.683118 -117.380473 189 4254ft 115kts
18-Oct-20 17:27 34.655735 -117.385695 184 4026ft 123kts
18-Oct-20 17:28 34.619498 -117.386105 182 3303ft 144kts
18-Oct-20 17:29 34.581834 -117.395851 236 4715ft 146kts
18-Oct-20 17:30 34.596792 -117.438985 313 5727ft 173kts
18-Oct-20 17:31 34.615244 -117.500267 278 5995ft 202kts
18-Oct-20 17:32 34.626136 -117.563134 282 5994ft 182kts
18-Oct-20 17:33 34.638314 -117.621391 283 5994ft 174kts
18-Oct-20 17:34 34.650097 -117.678098 282 5987ft 171kts
18-Oct-20 17:35 34.653015 -117.732213 222 5957ft 163kts
18-Oct-20 17:36 34.626949 -117.701711 95 5982ft 165kts
18-Oct-20 17:37 34.622734 -117.645662 95 5583ft 176kts
18-Oct-20 17:38 34.603731 -117.596050 123 4986ft 151kts
18-Oct-20 17:39 34.593636 -117.548376 73 4943ft 154kts
18-Oct-20 17:40 34.599180 -117.496863 118 4688ft 157kts
18-Oct-20 17:41 34.599542 -117.446926 72 4571ft 141kts
18-Oct-20 17:42 34.605842 -117.401255 83 4191ft 140kts
18-Oct-20 17:43 34.620949 -117.367811 63 4050ft 112kts
18-Oct-20 17:44 34.612578 -117.352674 217 3339ft 84kts
18-Oct-20 17:45 34.595925 -117.372004 222 2854ft 55kts
18-Oct-20 17:46 34.592287 -117.373476 229 2863ft 6kts
18-Oct-20 17:47 34.589358 -117.375146 189 2867ft 12kts
18-Oct-20 17:48 34.587804 -117.375494 187 2869ft 0kts
18-Oct-20 17:49 34.587804 -117.375494 187 2869ft 0kts
18-Oct-20 17:50 34.587804 -117.375494 187 2869ft 0kts
18-Oct-20 17:51 34.587804 -117.375494 187 2869ft 0kts

Navigation Log

Ident Type
Flight plan parsing failed, navigation log unavailable